Time;durP1;ratioP1;P1;durP2;ratioP2;P2;SDS_P1;SDS_P2;PMS_P1;PMS_P2;Temp;Humidity;BMP_temperature;BMP_pressure;BME280_temperature;BME280_humidity;BME280_pressure;Samples;Min_cycle;Max_cycle;Signal;HPM_P1;HPM_P2
2022/11/18 00:01:08;;;;;;;30.27;22.80;;;12.10;99.90;;;;;;5056205;28;20032;-69
2022/11/18 00:03:34;;;;;;;27.52;23.52;;;12.10;99.90;;;;;;5056060;28;20510;-69
2022/11/18 00:05:59;;;;;;;26.73;22.30;;;12.10;99.90;;;;;;5055966;28;20025;-69
2022/11/18 00:08:25;;;;;;;27.42;22.38;;;12.10;99.90;;;;;;5055504;28;20048;-69
2022/11/18 00:10:52;;;;;;;27.48;23.27;;;12.10;99.90;;;;;;5056022;28;20065;-69
2022/11/18 00:16:11;;;;;;;29.25;21.55;;;12.10;99.90;;;;;;5056112;28;20082;-69
2022/11/18 00:18:37;;;;;;;28.30;22.15;;;12.10;99.90;;;;;;5055663;28;20045;-69
2022/11/18 00:21:07;;;;;;;30.60;22.83;;;12.10;99.90;;;;;;5055858;28;20025;-69
2022/11/18 00:23:33;;;;;;;29.13;22.10;;;12.10;99.90;;;;;;5055693;28;20021;-68
2022/11/18 00:26:04;;;;;;;30.40;22.92;;;12.10;99.90;;;;;;5055793;28;20051;-69
2022/11/18 00:28:31;;;;;;;25.83;21.75;;;12.10;99.90;;;;;;5055654;28;20483;-69
2022/11/18 00:31:08;;;;;;;31.55;23.83;;;12.10;99.90;;;;;;5055682;28;20104;-69
2022/11/18 00:33:35;;;;;;;34.28;23.42;;;12.10;99.90;;;;;;5055234;28;20475;-69
2022/11/18 00:36:02;;;;;;;26.40;22.13;;;12.10;99.90;;;;;;5055280;28;20029;-69
2022/11/18 00:38:29;;;;;;;29.58;21.70;;;12.10;99.90;;;;;;5055420;28;20417;-70
2022/11/18 00:41:12;;;;;;;28.65;21.90;;;12.10;99.90;;;;;;5055234;28;20064;-69
2022/11/18 00:43:38;;;;;;;28.90;22.58;;;12.10;99.90;;;;;;5055504;28;20032;-69
2022/11/18 00:46:06;;;;;;;28.58;21.30;;;12.10;99.90;;;;;;5055192;28;20033;-69
2022/11/18 00:48:31;;;;;;;25.75;21.60;;;12.10;99.90;;;;;;5055111;28;20135;-69
2022/11/18 00:51:04;;;;;;;26.48;21.58;;;12.10;99.90;;;;;;5055274;28;20021;-69
2022/11/18 00:53:30;;;;;;;28.73;22.05;;;12.10;99.90;;;;;;5055170;28;20028;-69
2022/11/18 00:55:56;;;;;;;29.25;21.38;;;12.10;99.90;;;;;;5055208;28;20487;-69
2022/11/18 00:58:21;;;;;;;29.23;22.75;;;12.10;99.90;;;;;;5054990;28;20020;-69
2022/11/18 01:00:51;;;;;;;29.67;21.55;;;12.10;99.90;;;;;;5054661;28;20025;-69
2022/11/18 01:03:17;;;;;;;24.48;20.50;;;12.10;99.90;;;;;;5054840;28;20122;-69
2022/11/18 01:05:42;;;;;;;28.30;21.23;;;12.10;99.90;;;;;;5054992;28;20017;-69
2022/11/18 01:08:09;;;;;;;28.30;20.55;;;12.10;99.90;;;;;;5055068;28;20047;-69
2022/11/18 01:10:36;;;;;;;23.35;18.83;;;12.10;99.90;;;;;;5054927;28;20059;-69
2022/11/18 01:13:18;;;;;;;24.83;18.85;;;12.20;99.90;;;;;;5054305;28;20021;-69
2022/11/18 01:15:54;;;;;;;22.33;16.70;;;12.10;99.90;;;;;;5054615;28;20074;-69
2022/11/18 01:18:29;;;;;;;22.48;16.75;;;12.20;99.90;;;;;;5053325;28;20388;-68
2022/11/18 01:21:02;;;;;;;23.23;17.40;;;12.20;99.90;;;;;;5054680;28;20017;-68
2022/11/18 01:23:28;;;;;;;23.65;16.50;;;12.20;99.90;;;;;;5054704;28;20025;-69
2022/11/18 01:25:54;;;;;;;21.25;16.27;;;12.20;99.90;;;;;;5054462;28;20071;-69
2022/11/18 01:28:20;;;;;;;21.23;16.38;;;12.20;99.90;;;;;;5052933;28;20364;-69
2022/11/18 01:30:46;;;;;;;21.50;16.33;;;12.20;99.90;;;;;;5054513;28;20135;-69
2022/11/18 01:33:12;;;;;;;22.70;15.82;;;12.20;99.90;;;;;;5054369;28;20467;-70
2022/11/18 01:35:40;;;;;;;20.92;16.15;;;12.20;99.90;;;;;;5054139;28;20031;-69
2022/11/18 01:38:07;;;;;;;21.13;16.27;;;12.30;99.90;;;;;;5054064;28;20028;-69
2022/11/18 01:40:34;;;;;;;21.27;15.07;;;12.30;99.90;;;;;;5054229;28;20092;-70
2022/11/18 01:43:00;;;;;;;20.27;15.27;;;12.30;99.90;;;;;;5054424;28;20017;-69
2022/11/18 01:45:33;;;;;;;19.75;13.40;;;12.30;99.90;;;;;;5054273;28;20028;-69
2022/11/18 01:48:07;;;;;;;;;;;12.20;99.90;;;;;;5054330;28;20060;-69
2022/11/18 01:50:37;;;;;;;17.17;14.10;;;12.30;99.90;;;;;;5054083;28;19909;-69
2022/11/18 01:53:08;;;;;;;16.80;13.88;;;12.30;99.90;;;;;;5054495;28;20356;-69
2022/11/18 01:55:36;;;;;;;17.13;12.73;;;12.30;99.90;;;;;;5053863;28;20017;-70
2022/11/18 01:58:12;;;;;;;13.82;11.65;;;12.30;99.90;;;;;;5052423;28;20098;-71
2022/11/18 02:00:39;;;;;;;13.88;11.15;;;12.30;99.90;;;;;;5050994;28;20057;-70
2022/11/18 02:03:05;;;;;;;16.15;11.45;;;12.30;99.90;;;;;;5051173;28;20037;-70
2022/11/18 02:05:33;;;;;;;12.73;11.15;;;12.20;99.90;;;;;;5052781;28;20052;-69
2022/11/18 02:08:00;;;;;;;16.33;10.82;;;12.30;99.90;;;;;;5053761;28;20487;-69
2022/11/18 02:10:26;;;;;;;15.70;11.85;;;12.30;99.90;;;;;;5053746;28;20108;-69
2022/11/18 02:12:53;;;;;;;15.75;10.90;;;12.30;99.90;;;;;;5053115;28;20100;-69
2022/11/18 02:15:26;;;;;;;12.43;10.48;;;12.30;99.90;;;;;;5053161;28;20025;-69
2022/11/18 02:18:19;;;;;;;15.80;10.73;;;12.30;99.90;;;;;;5053497;28;20463;-69
2022/11/18 02:20:46;;;;;;;15.73;11.32;;;12.30;99.90;;;;;;5052941;28;20045;-69
2022/11/18 02:23:23;;;;;;;12.80;10.13;;;12.30;99.90;;;;;;5053291;28;20033;-69
2022/11/18 02:26:17;;;;;;;13.30;9.68;;;12.30;99.90;;;;;;5053142;28;20031;-71
2022/11/18 02:28:57;;;;;;;13.10;10.07;;;12.30;99.90;;;;;;5052789;28;20052;-69
2022/11/18 02:31:42;;;;;;;10.68;9.55;;;12.30;99.90;;;;;;5053184;28;20021;-69
2022/11/18 02:34:29;;;;;;;12.60;9.30;;;12.40;99.90;;;;;;5053408;28;20120;-69
2022/11/18 02:37:02;;;;;;;17.10;11.02;;;12.40;99.90;;;;;;5052673;28;20544;-69
2022/11/18 02:39:37;;;;;;;21.75;14.43;;;12.40;99.90;;;;;;5052858;28;20089;-68
2022/11/18 02:42:08;;;;;;;18.75;15.93;;;12.40;99.90;;;;;;5052981;28;20020;-69
2022/11/18 02:44:37;;;;;;;19.55;16.50;;;12.40;99.90;;;;;;5052864;28;20029;-70
2022/11/18 02:47:06;;;;;;;22.35;16.95;;;12.30;99.90;;;;;;5052903;28;20051;-69
2022/11/18 02:49:37;;;;;;;22.65;17.25;;;12.30;99.90;;;;;;5053040;28;20036;-69
2022/11/18 02:52:04;;;;;;;22.02;17.80;;;12.40;99.90;;;;;;5053083;28;20489;-69
2022/11/18 02:54:33;;;;;;;24.08;18.38;;;12.30;99.90;;;;;;5052724;28;20108;-69
2022/11/18 02:57:00;;;;;;;20.00;17.42;;;12.30;99.90;;;;;;5052864;28;20360;-69
2022/11/18 02:59:27;;;;;;;24.35;18.55;;;12.30;99.90;;;;;;5052927;28;20032;-69
2022/11/18 03:01:52;;;;;;;22.92;19.08;;;12.30;99.90;;;;;;5052604;28;20029;-69
2022/11/18 03:04:20;;;;;;;35.97;19.48;;;12.30;99.90;;;;;;5052799;28;20116;-69
2022/11/18 03:07:01;;;;;;;23.90;18.77;;;12.30;99.90;;;;;;5052958;28;20376;-69
2022/11/18 03:09:37;;;;;;;26.13;17.90;;;12.30;99.90;;;;;;5052936;28;20037;-69
2022/11/18 03:12:22;;;;;;;25.98;19.15;;;12.40;99.90;;;;;;5052829;28;20025;-69
2022/11/18 03:15:05;;;;;;;25.35;18.20;;;12.40;99.90;;;;;;5053240;28;20028;-69
2022/11/18 03:17:52;;;;;;;23.08;17.85;;;12.30;99.90;;;;;;5052739;28;20033;-69
2022/11/18 03:20:47;;;;;;;19.60;14.85;;;12.40;99.90;;;;;;5052588;28;20040;-69
2022/11/18 03:23:22;;;;;;;15.90;13.02;;;12.30;99.90;;;;;;5047013;28;20116;-69
2022/11/18 03:26:12;;;;;;;17.05;12.68;;;12.30;99.90;;;;;;5055298;28;20044;-68
2022/11/18 03:28:48;;;;;;;16.23;13.48;;;12.30;99.90;;;;;;5051251;28;20449;-69
2022/11/18 03:31:33;;;;;;;17.45;14.10;;;12.30;99.90;;;;;;5056754;28;20029;-69
2022/11/18 03:34:06;;;;;;;18.95;14.38;;;12.30;99.90;;;;;;5056621;28;20109;-68
2022/11/18 03:36:38;;;;;;;20.20;13.75;;;12.30;99.90;;;;;;5054771;28;20037;-69
2022/11/18 03:39:07;;;;;;;16.88;13.98;;;12.30;99.90;;;;;;5053591;28;20395;-69
2022/11/18 03:41:38;;;;;;;18.25;13.30;;;12.30;99.90;;;;;;5054990;28;20501;-69
2022/11/18 03:44:11;;;;;;;21.42;13.30;;;12.30;99.90;;;;;;5056655;28;20025;-69
2022/11/18 03:46:54;;;;;;;18.98;14.45;;;12.30;99.90;;;;;;5056421;28;20433;-69
2022/11/18 03:49:23;;;;;;;;;;;12.30;99.90;;;;;;5056945;28;20064;-69
2022/11/18 03:51:57;;;;;;;18.45;15.43;;;12.30;99.90;;;;;;5056314;28;19908;-69
2022/11/18 03:54:27;;;;;;;24.13;16.80;;;12.30;99.90;;;;;;5056283;28;20470;-69
2022/11/18 03:57:10;;;;;;;21.50;15.77;;;12.30;99.90;;;;;;5056350;28;20021;-68
2022/11/18 03:59:38;;;;;;;;;;;12.30;99.90;;;;;;5057047;28;20029;-69
2022/11/18 04:02:18;;;;;;;17.13;14.40;;;12.30;99.90;;;;;;5056031;28;19905;-69
2022/11/18 04:04:48;;;;;;;17.42;14.55;;;12.30;99.90;;;;;;5056037;28;20031;-69
2022/11/18 04:07:16;;;;;;;21.35;14.85;;;12.30;99.90;;;;;;5055769;28;20025;-69
2022/11/18 04:09:53;;;;;;;23.83;15.60;;;12.30;99.90;;;;;;5055934;28;20110;-69
2022/11/18 04:12:20;;;;;;;17.40;14.43;;;12.30;99.90;;;;;;5056016;28;20491;-68
2022/11/18 04:14:48;;;;;;;24.25;14.63;;;12.30;99.90;;;;;;5056126;28;20047;-71
2022/11/18 04:17:19;;;;;;;19.20;13.23;;;12.30;99.90;;;;;;5056109;28;20068;-71
2022/11/18 04:19:45;;;;;;;16.52;14.13;;;12.30;99.90;;;;;;5055600;28;20148;-68
2022/11/18 04:22:11;;;;;;;18.77;14.07;;;12.30;99.90;;;;;;5055818;28;20100;-68
2022/11/18 04:24:37;;;;;;;19.92;14.35;;;12.30;99.90;;;;;;5055811;28;20021;-68
2022/11/18 04:27:04;;;;;;;17.55;14.20;;;12.20;99.90;;;;;;5055803;28;20482;-68
2022/11/18 04:29:30;;;;;;;18.27;13.52;;;12.30;99.90;;;;;;5055643;28;20116;-69
2022/11/18 04:31:56;;;;;;;20.73;14.00;;;12.30;99.90;;;;;;5055445;28;20356;-68
2022/11/18 04:34:21;;;;;;;18.13;13.23;;;12.30;99.90;;;;;;5055419;28;20054;-68
2022/11/18 04:36:47;;;;;;;17.75;12.57;;;12.30;99.90;;;;;;5054552;28;20029;-68
2022/11/18 04:39:13;;;;;;;16.67;12.15;;;12.30;99.90;;;;;;5055392;28;20024;-68
2022/11/18 04:41:54;;;;;;;19.42;10.10;;;12.30;99.90;;;;;;5055084;28;20029;-69
2022/11/18 04:44:27;;;;;;;12.48;9.85;;;12.30;99.90;;;;;;5055282;28;20048;-68
2022/11/18 04:46:54;;;;;;;17.42;9.52;;;12.30;99.90;;;;;;5055366;28;20029;-71
2022/11/18 04:49:20;;;;;;;10.77;9.25;;;12.30;99.90;;;;;;5055160;28;20119;-68
2022/11/18 04:51:46;;;;;;;11.43;7.85;;;12.30;99.90;;;;;;5055189;28;20549;-70
2022/11/18 04:54:12;;;;;;;12.68;8.05;;;12.30;99.90;;;;;;5055430;28;20055;-69
2022/11/18 04:56:39;;;;;;;10.48;8.20;;;12.30;99.90;;;;;;5055246;28;20390;-68
2022/11/18 04:59:05;;;;;;;11.25;7.55;;;12.30;99.90;;;;;;5055266;28;20055;-69
2022/11/18 05:01:31;;;;;;;12.30;7.80;;;12.30;99.90;;;;;;5055011;28;20025;-69
2022/11/18 05:04:00;;;;;;;11.55;7.45;;;12.30;99.90;;;;;;5055105;28;20025;-69
2022/11/18 05:06:26;;;;;;;9.75;6.95;;;12.20;99.90;;;;;;5054795;28;20029;-70
2022/11/18 05:08:52;;;;;;;9.93;6.75;;;12.20;99.90;;;;;;5054802;28;20033;-71
2022/11/18 05:14:03;;;;;;;7.95;6.18;;;12.20;99.90;;;;;;5055087;28;20066;-72
2022/11/18 05:16:28;;;;;;;8.18;7.28;;;12.20;99.90;;;;;;5054813;28;20021;-69
2022/11/18 05:18:54;;;;;;;15.52;7.60;;;12.20;99.90;;;;;;5054476;28;20376;-70
2022/11/18 05:21:20;;;;;;;16.40;7.82;;;12.20;99.90;;;;;;5053240;28;20167;-70
2022/11/18 05:23:45;;;;;;;15.02;8.70;;;12.20;99.90;;;;;;5054612;28;20021;-71
2022/11/18 05:26:11;;;;;;;11.57;7.85;;;12.20;99.90;;;;;;5054670;28;20024;-71
2022/11/18 05:28:37;;;;;;;14.82;8.38;;;12.20;99.90;;;;;;5054261;28;20139;-71
2022/11/18 05:31:11;;;;;;;11.43;8.38;;;12.20;99.90;;;;;;5054553;28;20025;-71
2022/11/18 05:33:37;;;;;;;15.65;8.75;;;12.20;99.90;;;;;;5054496;28;20025;-68
2022/11/18 05:36:11;;;;;;;13.23;8.70;;;12.20;99.90;;;;;;5054689;28;20017;-68
2022/11/18 05:38:37;;;;;;;9.70;8.45;;;12.20;99.90;;;;;;5054380;28;20107;-68
2022/11/18 05:41:03;;;;;;;11.25;8.68;;;12.20;99.90;;;;;;5054400;28;20056;-69
2022/11/18 05:43:30;;;;;;;19.02;8.90;;;12.20;99.90;;;;;;5054190;28;20028;-71
2022/11/18 05:45:56;;;;;;;13.27;9.13;;;12.30;99.90;;;;;;5054461;28;20100;-72
2022/11/18 05:48:21;;;;;;;14.25;9.18;;;12.20;99.90;;;;;;5053022;28;20060;-71
2022/11/18 05:50:49;;;;;;;11.95;8.73;;;12.20;99.90;;;;;;5054054;28;20025;-70
2022/11/18 05:53:16;;;;;;;13.57;8.95;;;12.30;99.90;;;;;;5054013;28;20107;-70
2022/11/18 05:56:02;;;;;;;14.20;8.38;;;12.30;99.90;;;;;;5054102;28;20406;-70
2022/11/18 05:58:28;;;;;;;15.70;8.75;;;12.30;99.90;;;;;;5054032;28;20025;-71
2022/11/18 06:00:57;;;;;;;14.23;9.23;;;12.30;99.90;;;;;;5053816;28;20025;-72
2022/11/18 06:03:28;;;;;;;17.92;9.70;;;12.30;99.90;;;;;;5053948;28;20035;-71
2022/11/18 06:05:55;;;;;;;12.85;8.52;;;12.30;99.90;;;;;;5054110;28;20057;-71
2022/11/18 06:08:25;;;;;;;12.32;9.32;;;12.30;99.90;;;;;;5053860;28;20025;-71
2022/11/18 06:10:52;;;;;;;22.00;10.07;;;12.30;99.90;;;;;;5053722;28;20105;-71
2022/11/18 06:13:25;;;;;;;19.75;8.73;;;12.30;99.90;;;;;;5053217;28;20048;-70
2022/11/18 06:15:52;;;;;;;13.73;8.88;;;12.30;99.90;;;;;;5053575;28;20025;-71
2022/11/18 06:18:20;;;;;;;12.82;9.25;;;12.30;99.90;;;;;;5053566;28;20049;-70
2022/11/18 06:20:46;;;;;;;11.68;8.55;;;12.30;99.90;;;;;;5053505;28;20021;-71
2022/11/18 06:23:12;;;;;;;14.15;9.23;;;12.30;99.90;;;;;;5053503;28;20534;-70
2022/11/18 06:25:39;;;;;;;13.35;9.18;;;12.30;99.90;;;;;;5053317;28;20029;-70
2022/11/18 06:28:06;;;;;;;15.70;8.93;;;12.30;99.90;;;;;;5053641;28;20025;-70
2022/11/18 06:30:32;;;;;;;11.00;8.50;;;12.30;99.90;;;;;;5053373;28;20036;-70
2022/11/18 06:32:57;;;;;;;17.00;9.25;;;12.30;99.90;;;;;;5053580;28;20059;-70
2022/11/18 06:35:23;;;;;;;12.82;9.05;;;12.30;99.90;;;;;;5053341;28;20025;-70
2022/11/18 06:37:49;;;;;;;13.20;8.77;;;12.30;99.90;;;;;;5052980;28;20052;-70
2022/11/18 06:40:15;;;;;;;11.93;8.52;;;12.30;99.90;;;;;;5053042;28;20033;-70
2022/11/18 06:45:25;;;;;;;14.52;9.90;;;12.30;99.90;;;;;;5053157;28;20039;-70
2022/11/18 06:47:51;;;;;;;13.02;9.75;;;12.30;99.90;;;;;;5053100;28;20390;-70
2022/11/18 06:50:16;;;;;;;12.25;9.75;;;12.30;99.90;;;;;;5052612;28;20044;-70
2022/11/18 06:52:42;;;;;;;10.52;9.25;;;12.30;99.90;;;;;;5052901;28;20028;-70
2022/11/18 06:55:08;;;;;;;13.48;8.25;;;12.30;99.90;;;;;;5052860;28;20032;-70
2022/11/18 06:57:34;;;;;;;12.40;8.82;;;12.30;99.90;;;;;;5052861;28;20029;-71
2022/11/18 07:00:00;;;;;;;16.02;9.20;;;12.30;99.90;;;;;;5052492;28;20095;-70
2022/11/18 07:02:26;;;;;;;17.20;8.80;;;12.30;99.90;;;;;;5052953;28;20148;-71
2022/11/18 07:04:51;;;;;;;10.45;8.45;;;12.30;99.90;;;;;;5052833;28;20471;-70
2022/11/18 07:07:17;;;;;;;12.30;8.63;;;12.30;99.90;;;;;;5052716;28;20032;-71
2022/11/18 07:09:43;;;;;;;10.85;8.48;;;12.30;99.90;;;;;;5052019;28;20116;-71
2022/11/18 07:12:09;;;;;;;15.90;10.23;;;12.30;99.90;;;;;;5052581;28;20078;-70
2022/11/18 07:14:34;;;;;;;15.00;11.05;;;12.30;99.90;;;;;;5052525;28;20417;-70
2022/11/18 07:17:00;;;;;;;19.02;13.45;;;12.40;99.90;;;;;;5052563;28;20021;-71
2022/11/18 07:19:26;;;;;;;19.13;13.43;;;12.30;99.90;;;;;;5052360;28;20080;-71
2022/11/18 07:21:53;;;;;;;17.92;11.82;;;12.30;99.90;;;;;;5052420;28;20482;-70
2022/11/18 07:24:18;;;;;;;10.77;8.57;;;12.30;99.90;;;;;;5052381;28;20036;-70
2022/11/18 07:26:44;;;;;;;10.70;8.07;;;12.40;99.90;;;;;;5052700;28;21068;-70
2022/11/18 07:29:10;;;;;;;10.15;7.30;;;12.40;99.90;;;;;;5052489;28;20061;-70
2022/11/18 07:31:39;;;;;;;11.88;7.88;;;12.40;99.90;;;;;;5052486;28;20463;-71
2022/11/18 07:34:06;;;;;;;9.20;7.65;;;12.40;99.90;;;;;;5050852;28;20033;-71
2022/11/18 07:36:31;;;;;;;9.70;7.35;;;12.40;99.90;;;;;;5051886;28;20449;-70
2022/11/18 07:38:59;;;;;;;10.70;7.20;;;12.40;99.90;;;;;;5052271;28;20120;-69
2022/11/18 07:41:27;;;;;;;12.38;8.68;;;12.40;99.90;;;;;;5052810;28;20029;-70
2022/11/18 07:43:55;;;;;;;9.57;8.13;;;12.40;99.90;;;;;;5052097;28;20025;-70
2022/11/18 07:46:23;;;;;;;9.90;8.65;;;12.40;99.90;;;;;;5051241;28;20033;-71
2022/11/18 07:48:51;;;;;;;9.98;8.38;;;12.40;99.90;;;;;;5051508;28;20048;-69
2022/11/18 07:51:19;;;;;;;14.60;8.73;;;12.40;99.90;;;;;;5051153;28;20032;-70
2022/11/18 07:53:45;;;;;;;12.10;9.20;;;12.50;99.90;;;;;;5050581;28;20099;-70
2022/11/18 07:56:12;;;;;;;12.25;9.25;;;12.50;99.90;;;;;;5051379;28;20027;-70
2022/11/18 07:58:38;;;;;;;11.55;9.38;;;12.50;99.90;;;;;;5052171;28;20028;-70
2022/11/18 08:01:17;;;;;;;14.82;8.57;;;12.50;99.90;;;;;;5051572;28;20110;-70
2022/11/18 08:03:44;;;;;;;12.90;8.13;;;12.50;99.90;;;;;;5050862;28;20500;-71
2022/11/18 08:06:12;;;;;;;8.90;7.30;;;12.50;99.90;;;;;;5051028;28;20025;-69
2022/11/18 08:08:38;;;;;;;13.75;7.20;;;12.50;99.90;;;;;;5051512;28;20433;-71
2022/11/18 08:11:07;;;;;;;9.38;7.35;;;12.60;99.90;;;;;;5051481;28;20021;-70
2022/11/18 08:13:33;;;;;;;13.20;7.15;;;12.60;99.90;;;;;;5055485;28;20025;-72
2022/11/18 08:15:59;;;;;;;11.05;6.55;;;12.50;99.90;;;;;;5054580;28;20033;-70
2022/11/18 08:18:28;;;;;;;9.75;6.30;;;12.50;99.90;;;;;;5054198;28;20560;-70
2022/11/18 08:20:53;;;;;;;7.22;6.47;;;12.60;99.90;;;;;;5054722;28;20100;-70
2022/11/18 08:23:19;;;;;;;12.25;6.80;;;12.60;99.90;;;;;;5054722;28;20104;-69
2022/11/18 08:25:46;;;;;;;14.75;7.18;;;12.60;99.90;;;;;;5055003;28;20425;-69
2022/11/18 08:28:13;;;;;;;13.30;6.22;;;12.60;99.90;;;;;;5020962;28;20037;-69
2022/11/18 08:30:39;;;;;;;7.75;5.65;;;12.60;99.90;;;;;;5034410;28;20037;-71
2022/11/18 08:33:05;;;;;;;7.22;5.90;;;12.60;99.90;;;;;;5017108;28;20026;-69
2022/11/18 08:35:31;;;;;;;8.52;5.38;;;12.60;99.90;;;;;;5014711;28;20044;-71
2022/11/18 08:37:58;;;;;;;7.07;5.30;;;12.70;99.90;;;;;;5015336;28;20018;-70
2022/11/18 08:40:24;;;;;;;7.45;4.90;;;12.70;99.90;;;;;;5015613;28;20053;-70
2022/11/18 08:42:50;;;;;;;6.50;4.25;;;12.70;99.90;;;;;;5015635;28;20026;-71
2022/11/18 08:45:16;;;;;;;8.98;4.88;;;12.70;99.90;;;;;;5015588;28;20030;-72
2022/11/18 08:47:42;;;;;;;5.53;4.10;;;12.80;99.90;;;;;;5015633;28;20045;-73
2022/11/18 08:50:10;;;;;;;10.13;4.43;;;12.80;99.90;;;;;;5015326;28;20408;-72
2022/11/18 08:52:36;;;;;;;5.65;4.43;;;12.80;99.90;;;;;;5015448;28;20026;-71
2022/11/18 08:55:03;;;;;;;6.10;4.50;;;12.90;99.90;;;;;;5015333;28;20480;-71
2022/11/18 08:57:28;;;;;;;6.72;4.65;;;12.90;99.90;;;;;;5025119;28;20111;-70
2022/11/18 08:59:54;;;;;;;7.93;4.97;;;12.90;99.90;;;;;;5034934;28;20432;-70
2022/11/18 09:02:22;;;;;;;9.23;5.30;;;13.00;99.90;;;;;;5035147;28;20361;-71
2022/11/18 09:04:49;;;;;;;8.68;4.82;;;13.00;99.90;;;;;;5034970;28;20033;-70
2022/11/18 09:07:15;;;;;;;11.32;5.40;;;13.00;99.90;;;;;;5034864;28;20369;-70
2022/11/18 09:09:41;;;;;;;10.75;5.03;;;13.00;99.90;;;;;;5034958;28;20044;-71
2022/11/18 09:12:08;;;;;;;9.45;5.10;;;13.10;99.90;;;;;;5035006;28;20021;-71
2022/11/18 09:14:34;;;;;;;9.73;4.85;;;13.10;99.90;;;;;;5034677;28;20022;-70
2022/11/18 09:16:59;;;;;;;7.45;4.68;;;13.10;99.90;;;;;;5034961;28;20361;-70
2022/11/18 09:19:25;;;;;;;13.05;4.82;;;13.10;99.90;;;;;;5034558;28;20120;-70
2022/11/18 09:21:51;;;;;;;8.13;5.53;;;13.10;99.90;;;;;;5034668;28;20509;-71
2022/11/18 09:24:17;;;;;;;10.80;5.82;;;13.10;99.90;;;;;;5034583;28;20025;-71
2022/11/18 09:26:43;;;;;;;7.40;5.40;;;13.10;99.90;;;;;;5034753;28;20017;-71
2022/11/18 09:29:10;;;;;;;8.32;5.18;;;13.10;99.90;;;;;;5034402;28;20064;-71
2022/11/18 09:31:36;;;;;;;9.20;5.93;;;13.10;99.90;;;;;;5034972;28;20022;-71
2022/11/18 09:34:02;;;;;;;10.18;5.57;;;13.10;99.90;;;;;;5034779;28;20025;-70
2022/11/18 09:36:27;;;;;;;20.65;6.30;;;13.10;99.90;;;;;;5034709;28;20078;-70
2022/11/18 09:38:53;;;;;;;7.68;5.25;;;13.20;99.90;;;;;;5034752;28;20057;-70
2022/11/18 09:41:38;;;;;;;11.95;5.78;;;13.20;99.90;;;;;;5034376;28;20155;-70
2022/11/18 09:44:30;;;;;;;7.72;5.93;;;13.20;99.90;;;;;;5034505;28;20075;-70
2022/11/18 09:47:17;;;;;;;8.60;6.45;;;13.20;99.90;;;;;;5029614;28;20034;-71
2022/11/18 09:49:44;;;;;;;13.40;6.85;;;13.30;99.90;;;;;;5034694;28;20430;-70
2022/11/18 09:52:19;;;;;;;11.32;6.40;;;13.30;99.90;;;;;;5033937;28;20026;-70
2022/11/18 09:54:45;;;;;;;9.57;6.32;;;13.30;99.90;;;;;;5033856;28;20044;-70
2022/11/18 09:57:27;;;;;;;11.05;6.10;;;13.30;99.90;;;;;;5034113;28;20096;-69
2022/11/18 09:59:53;;;;;;;10.38;5.75;;;13.30;99.90;;;;;;5034044;28;20025;-70
2022/11/18 10:02:44;;;;;;;11.02;6.55;;;13.30;99.90;;;;;;5033791;28;20040;-70
2022/11/18 10:05:22;;;;;;;10.15;6.47;;;13.30;99.90;;;;;;5033712;28;20466;-71
2022/11/18 10:08:01;;;;;;;9.80;7.18;;;13.30;99.90;;;;;;5033936;28;20021;-71
2022/11/18 10:10:39;;;;;;;8.98;7.00;;;13.30;99.90;;;;;;5026958;28;20041;-71
2022/11/18 10:13:30;;;;;;;10.93;7.72;;;13.30;99.90;;;;;;5003728;28;20022;-71
2022/11/18 10:16:18;;;;;;;11.85;7.95;;;13.30;99.90;;;;;;4997032;28;20033;-71
2022/11/18 10:19:02;;;;;;;10.77;8.02;;;13.30;99.90;;;;;;4983826;28;20505;-71
2022/11/18 10:21:43;;;;;;;10.38;7.80;;;13.40;99.90;;;;;;4994337;28;20034;-71
2022/11/18 10:24:18;;;;;;;9.18;5.97;;;13.40;99.90;;;;;;4994306;28;20072;-71
2022/11/18 10:26:45;;;;;;;6.65;5.00;;;13.40;99.90;;;;;;5003529;28;20029;-71
2022/11/18 10:29:10;;;;;;;6.00;4.70;;;13.40;99.90;;;;;;5003363;28;20092;-71
2022/11/18 10:31:38;;;;;;;5.90;4.15;;;13.40;99.90;;;;;;5001849;28;20026;-71
2022/11/18 10:34:05;;;;;;;4.00;3.60;;;13.40;99.90;;;;;;5010364;28;20397;-71
2022/11/18 10:36:33;;;;;;;7.20;3.92;;;13.40;99.90;;;;;;5013563;28;20125;-71
2022/11/18 10:39:24;;;;;;;6.13;4.03;;;13.40;99.90;;;;;;5013420;28;20037;-71
2022/11/18 10:41:52;;;;;;;4.38;3.55;;;13.50;99.90;;;;;;5013033;28;20064;-71
2022/11/18 10:44:40;;;;;;;5.35;3.83;;;13.40;99.90;;;;;;5013470;28;20030;-71
2022/11/18 10:47:29;;;;;;;4.25;2.70;;;13.40;99.90;;;;;;5013795;28;20053;-70
2022/11/18 10:50:21;;;;;;;5.97;2.70;;;13.40;99.90;;;;;;5013201;28;20045;-71
2022/11/18 10:52:52;;;;;;;9.35;2.92;;;13.40;99.90;;;;;;5013102;28;20484;-71
2022/11/18 10:55:23;;;;;;;11.05;3.10;;;13.40;99.90;;;;;;5013073;28;20447;-71
2022/11/18 10:57:55;;;;;;;3.40;2.50;;;13.40;99.90;;;;;;5013101;28;20034;-71
2022/11/18 11:00:41;;;;;;;2.80;2.38;;;13.40;99.90;;;;;;5013349;28;20484;-71
2022/11/18 11:03:34;;;;;;;4.45;2.60;;;13.30;99.90;;;;;;5013177;28;20384;-71
2022/11/18 11:06:26;;;;;;;3.67;2.25;;;13.30;99.90;;;;;;5013095;28;20030;-71
2022/11/18 11:09:15;;;;;;;4.50;2.40;;;13.30;99.90;;;;;;5012972;28;20064;-71
2022/11/18 11:11:54;;;;;;;5.15;2.30;;;13.30;99.90;;;;;;5012875;28;20097;-71
2022/11/18 11:14:25;;;;;;;5.53;2.67;;;13.30;99.90;;;;;;5013215;28;20102;-71
2022/11/18 11:17:12;;;;;;;3.50;2.80;;;13.30;99.90;;;;;;5012901;28;20392;-71
2022/11/18 11:19:49;;;;;;;5.45;2.75;;;13.30;99.90;;;;;;5012769;28;20269;-72
2022/11/18 11:22:16;;;;;;;5.10;2.97;;;13.30;99.90;;;;;;5013113;28;20387;-70
2022/11/18 11:24:42;;;;;;;3.70;3.05;;;13.30;99.90;;;;;;5013179;28;20030;-71
2022/11/18 11:27:42;;;;;;;8.35;3.20;;;13.30;99.90;;;;;;5013128;28;20025;-72
2022/11/18 11:30:11;;;;;;;5.28;3.05;;;13.30;99.90;;;;;;5012923;28;20034;-71
2022/11/18 11:33:01;;;;;;;4.18;2.97;;;13.30;99.90;;;;;;5013042;28;20057;-71
2022/11/18 11:35:36;;;;;;;5.15;3.08;;;13.30;99.90;;;;;;5013126;28;20038;-71
2022/11/18 11:38:29;;;;;;;6.05;3.08;;;13.40;99.90;;;;;;5012742;28;20022;-73
2022/11/18 11:41:13;;;;;;;;;;;13.40;99.90;;;;;;5013796;28;20076;-71
2022/11/18 11:44:12;;;;;;;5.25;2.97;;;13.40;99.90;;;;;;5012696;28;20355;-71
2022/11/18 11:49:59;;;;;;;7.30;3.60;;;13.40;99.90;;;;;;5016501;28;20037;-70
2022/11/18 11:52:37;;;;;;;6.70;3.20;;;13.30;99.90;;;;;;5016716;28;20026;-71
2022/11/18 11:55:21;;;;;;;5.57;3.38;;;13.30;99.90;;;;;;5016447;28;20388;-71
2022/11/18 11:57:50;;;;;;;6.55;3.50;;;13.40;99.90;;;;;;5016720;28;20029;-71
2022/11/18 12:00:18;;;;;;;6.25;3.80;;;13.40;99.90;;;;;;5016483;28;20026;-71
2022/11/18 12:02:50;;;;;;;7.15;4.35;;;13.40;99.90;;;;;;5016448;28;20026;-72
2022/11/18 12:05:25;;;;;;;7.27;4.27;;;13.40;99.90;;;;;;5016217;28;20480;-71
2022/11/18 12:07:56;;;;;;;6.68;3.70;;;13.40;99.90;;;;;;5016606;28;20272;-71
2022/11/18 12:10:37;;;;;;;3.97;2.67;;;13.50;99.90;;;;;;5016276;28;20069;-71
2022/11/18 12:13:18;;;;;;;4.00;1.90;;;13.50;99.90;;;;;;5014784;28;20034;-71
2022/11/18 12:16:05;;;;;;;3.60;1.00;;;13.60;99.90;;;;;;5013858;28;20037;-75
2022/11/18 12:18:42;;;;;;;4.30;0.77;;;13.70;99.90;;;;;;5014458;28;20084;-71
2022/11/18 12:21:28;;;;;;;1.55;0.63;;;13.70;99.60;;;;;;5015957;28;20030;-73
2022/11/18 12:24:16;;;;;;;2.95;0.60;;;13.70;99.20;;;;;;5015983;28;20030;-72
2022/11/18 12:26:45;;;;;;;1.88;0.70;;;13.70;98.30;;;;;;5015147;28;20064;-71
2022/11/18 12:29:43;;;;;;;4.57;0.70;;;13.60;98.10;;;;;;5015789;28;20034;-71
2022/11/18 12:32:35;;;;;;;3.15;1.25;;;13.60;97.90;;;;;;5015778;28;20049;-71
2022/11/18 12:35:13;;;;;;;1.23;0.47;;;13.50;97.70;;;;;;5015554;28;20022;-71
2022/11/18 12:38:06;;;;;;;0.98;0.60;;;13.40;97.50;;;;;;5014636;28;20052;-71
2022/11/18 12:40:35;;;;;;;1.63;0.60;;;13.40;97.70;;;;;;5011926;28;20148;-71
2022/11/18 12:45:50;;;;;;;0.93;0.60;;;13.30;98.10;;;;;;4999496;28;20116;-72
2022/11/18 12:48:37;;;;;;;2.50;0.93;;;13.30;98.20;;;;;;5002683;28;20025;-72
2022/11/18 12:51:15;;;;;;;3.00;0.60;;;13.20;98.10;;;;;;5005725;28;20042;-71
2022/11/18 12:53:45;;;;;;;0.77;0.47;;;13.20;98.20;;;;;;5005971;28;20481;-71
2022/11/18 12:56:26;;;;;;;5.50;0.80;;;13.20;98.30;;;;;;5003968;28;20503;-72
2022/11/18 12:58:54;;;;;;;6.57;1.48;;;13.10;98.30;;;;;;4993931;28;20101;-76
2022/11/18 13:01:23;;;;;;;5.00;0.98;;;13.10;98.40;;;;;;4994507;28;20019;-72
2022/11/18 13:03:49;;;;;;;2.92;0.80;;;13.10;98.40;;;;;;4995314;28;20385;-71
2022/11/18 13:06:31;;;;;;;4.70;0.90;;;13.10;98.30;;;;;;4995329;28;20476;-72
2022/11/18 13:09:02;;;;;;;6.35;1.17;;;13.10;98.30;;;;;;4995223;28;20114;-71
2022/11/18 13:11:45;;;;;;;7.73;1.00;;;13.00;98.20;;;;;;4997763;28;20033;-71
2022/11/18 13:20:36;;;;;;;1.60;0.73;;;13.20;98.10;;;;;;4995107;28;20057;-71